createdAt,value
2022-08-25T00:00:55.925Z,17.23
2022-08-25T00:01:55.887Z,17.20
2022-08-25T00:02:57.742Z,17.26
2022-08-25T00:03:55.889Z,17.31
2022-08-25T00:04:55.866Z,17.39
2022-08-25T00:05:55.949Z,17.38
2022-08-25T00:07:00.680Z,17.31
2022-08-25T00:07:57.819Z,17.33
2022-08-25T00:08:55.828Z,17.30
2022-08-25T00:09:55.823Z,17.38
2022-08-25T00:11:03.029Z,17.45
2022-08-25T00:11:56.864Z,17.46
2022-08-25T00:12:55.809Z,17.42
2022-08-25T00:13:55.835Z,17.45
2022-08-25T00:14:55.818Z,17.45
2022-08-25T00:15:55.800Z,17.42
2022-08-25T00:16:56.119Z,17.34
2022-08-25T00:17:55.795Z,17.34
2022-08-25T00:18:55.792Z,17.44
2022-08-25T00:19:55.815Z,17.33
2022-08-25T00:20:55.763Z,17.38
2022-08-25T00:21:55.772Z,17.39
2022-08-25T00:22:55.764Z,17.45
2022-08-25T00:23:55.789Z,17.42
2022-08-25T00:24:55.731Z,17.54
2022-08-25T00:25:55.718Z,17.56
2022-08-25T00:26:55.726Z,17.54
2022-08-25T00:27:55.719Z,17.46
2022-08-25T00:29:01.124Z,17.48
2022-08-25T00:29:56.668Z,17.45
2022-08-25T00:30:55.767Z,17.41
2022-08-25T00:31:55.673Z,17.30
2022-08-25T00:32:57.397Z,17.20
2022-08-25T00:33:55.693Z,17.09
2022-08-25T00:34:55.647Z,17.12
2022-08-25T00:35:55.648Z,17.01
2022-08-25T00:36:55.661Z,16.99
2022-08-25T00:37:55.633Z,16.91
2022-08-25T00:38:55.683Z,16.99
2022-08-25T00:39:55.684Z,16.89
2022-08-25T00:40:55.608Z,16.84
2022-08-25T00:41:55.604Z,16.90
2022-08-25T00:42:55.623Z,16.89
2022-08-25T00:43:55.616Z,16.79
2022-08-25T00:44:56.419Z,16.79
2022-08-25T00:45:55.614Z,16.83
2022-08-25T00:46:56.131Z,16.79
2022-08-25T00:47:56.701Z,16.79
2022-08-25T00:48:55.588Z,16.74
2022-08-25T00:49:55.520Z,16.57
2022-08-25T00:50:55.573Z,16.71
2022-08-25T00:51:55.500Z,16.60
2022-08-25T00:52:55.509Z,16.60
2022-08-25T00:53:55.499Z,16.57
2022-08-25T00:54:55.518Z,16.47
2022-08-25T00:55:55.495Z,16.60
2022-08-25T00:56:55.497Z,16.61
2022-08-25T00:57:55.502Z,16.51
2022-08-25T00:58:55.477Z,16.51
2022-08-25T00:59:55.468Z,16.42
2022-08-25T01:00:55.457Z,16.47
2022-08-25T01:01:56.118Z,16.43
2022-08-25T01:02:55.575Z,16.46
2022-08-25T01:03:55.457Z,16.51
2022-08-25T01:04:55.404Z,16.57
2022-08-25T01:05:55.415Z,16.60
2022-08-25T01:06:55.437Z,16.60
2022-08-25T01:07:58.505Z,16.66
2022-08-25T01:08:55.404Z,16.61
2022-08-25T01:09:55.351Z,16.60
2022-08-25T01:10:55.427Z,16.56
2022-08-25T01:11:55.379Z,16.50
2022-08-25T01:12:55.777Z,16.64
2022-08-25T01:13:55.421Z,16.61
2022-08-25T01:14:55.430Z,16.42
2022-08-25T01:15:55.386Z,16.49
2022-08-25T01:16:55.339Z,16.43
2022-08-25T01:17:55.384Z,16.35
2022-08-25T01:18:55.368Z,16.36
2022-08-25T01:19:55.377Z,16.32
2022-08-25T01:20:55.348Z,16.32
2022-08-25T01:21:55.315Z,16.33
2022-08-25T01:22:56.240Z,16.29
2022-08-25T01:23:55.312Z,16.33
2022-08-25T01:24:55.245Z,16.24
2022-08-25T01:25:55.267Z,16.17
2022-08-25T01:26:55.309Z,16.31
2022-08-25T01:27:56.220Z,16.20
2022-08-25T01:28:56.138Z,16.16
2022-08-25T01:29:55.264Z,16.24
2022-08-25T01:30:55.377Z,16.20
2022-08-25T01:31:55.242Z,16.05
2022-08-25T01:32:55.234Z,16.15
2022-08-25T01:33:55.255Z,16.17
2022-08-25T01:34:55.735Z,16.32
2022-08-25T01:35:55.181Z,16.31
2022-08-25T01:36:55.166Z,16.39
2022-08-25T01:37:55.205Z,16.41
2022-08-25T01:38:55.206Z,16.53
2022-08-25T01:39:56.099Z,16.64
2022-08-25T01:40:55.187Z,16.57
2022-08-25T01:41:55.134Z,16.54
2022-08-25T01:42:55.236Z,16.66
2022-08-25T01:43:55.130Z,16.72
2022-08-25T01:44:55.136Z,16.69
2022-08-25T02:02:52.227Z,16.78
2022-08-25T02:03:49.666Z,16.76
2022-08-25T02:04:48.763Z,16.76
2022-08-25T02:05:49.781Z,16.65
2022-08-25T02:06:49.782Z,16.79
2022-08-25T02:07:49.742Z,16.65
2022-08-25T02:08:49.816Z,16.68
2022-08-25T02:09:49.769Z,16.65
2022-08-25T02:10:49.741Z,16.64
2022-08-25T02:11:50.724Z,16.57
2022-08-25T02:12:49.738Z,16.60
2022-08-25T02:13:49.718Z,16.58
2022-08-25T02:14:49.723Z,16.54
2022-08-25T02:15:49.735Z,16.51
2022-08-25T02:16:49.708Z,16.53
2022-08-25T02:17:49.684Z,16.42
2022-08-25T02:18:49.701Z,16.50
2022-08-25T02:19:49.730Z,16.43
2022-08-25T02:20:49.663Z,16.31
2022-08-25T02:21:49.647Z,16.28
2022-08-25T02:22:56.612Z,16.17
2022-08-25T02:23:54.181Z,16.17
2022-08-25T02:24:49.663Z,16.08
2022-08-25T02:25:49.688Z,16.09
2022-08-25T02:26:49.643Z,15.98
2022-08-25T02:28:23.314Z,15.97
2022-08-25T02:28:49.689Z,15.95
2022-08-25T02:29:49.580Z,15.98
2022-08-25T02:30:49.660Z,15.95
2022-08-25T02:31:52.310Z,15.91
2022-08-25T02:45:02.105Z,15.82
2022-08-25T02:46:02.173Z,15.70
2022-08-25T02:47:04.099Z,15.68
2022-08-25T02:48:03.409Z,15.65
2022-08-25T02:49:03.317Z,15.68
2022-08-25T02:50:03.308Z,15.72
2022-08-25T02:51:03.357Z,15.62
2022-08-25T02:52:03.870Z,15.70
2022-08-25T02:53:03.261Z,15.68
2022-08-25T02:54:03.270Z,15.65
2022-08-25T02:55:03.282Z,15.67
2022-08-25T02:56:03.304Z,15.64
2022-08-25T02:57:03.344Z,15.65
2022-08-25T02:58:03.230Z,15.52
2022-08-25T02:59:03.337Z,15.59
2022-08-25T03:00:03.225Z,15.57
2022-08-25T03:01:03.844Z,15.46
2022-08-25T03:02:03.239Z,15.54
2022-08-25T03:03:03.175Z,15.72
2022-08-25T03:04:03.240Z,15.77
2022-08-25T03:05:03.285Z,15.65
2022-08-25T03:06:03.230Z,15.70
2022-08-25T03:07:03.361Z,15.58
2022-08-25T03:08:03.219Z,15.57
2022-08-25T03:09:03.251Z,15.51
2022-08-25T03:10:03.521Z,15.47
2022-08-25T03:11:03.315Z,15.44
2022-08-25T03:12:03.111Z,15.47
2022-08-25T03:13:03.182Z,15.52
2022-08-25T03:14:03.097Z,15.47
2022-08-25T03:15:03.102Z,15.51
2022-08-25T03:16:03.132Z,15.55
2022-08-25T03:17:03.116Z,15.42
2022-08-25T03:18:04.277Z,15.49
2022-08-25T03:19:03.073Z,15.47
2022-08-25T03:20:03.056Z,15.42
2022-08-25T03:21:03.096Z,15.33
2022-08-25T03:22:03.141Z,15.40
2022-08-25T03:23:03.613Z,15.40
2022-08-25T03:24:03.068Z,15.28
2022-08-25T03:25:03.083Z,15.29
2022-08-25T03:26:03.145Z,15.40
2022-08-25T03:27:02.977Z,15.37
2022-08-25T03:28:02.987Z,15.40
2022-08-25T03:29:03.908Z,15.33
2022-08-25T03:30:02.954Z,15.24
2022-08-25T03:31:03.042Z,15.39
2022-08-25T03:32:03.109Z,15.29
2022-08-25T03:33:03.134Z,15.22
2022-08-25T03:34:03.061Z,15.24
2022-08-25T03:35:03.013Z,15.19
2022-08-25T03:36:02.962Z,15.19
2022-08-25T03:37:03.058Z,15.14
2022-08-25T03:38:02.945Z,15.10
2022-08-25T03:39:02.968Z,15.09
2022-08-25T03:40:03.909Z,15.10
2022-08-25T03:41:02.904Z,15.04
2022-08-25T03:42:03.000Z,15.06
2022-08-25T03:43:03.872Z,14.99
2022-08-25T03:44:02.892Z,14.92
2022-08-25T03:45:02.863Z,14.88
2022-08-25T03:46:02.929Z,14.91
2022-08-25T04:02:21.782Z,14.28
2022-08-25T04:03:21.732Z,14.29
2022-08-25T04:04:21.734Z,14.28
2022-08-25T04:05:21.760Z,14.30
2022-08-25T04:06:21.701Z,14.28
2022-08-25T04:07:22.906Z,14.32
2022-08-25T04:08:22.935Z,14.35
2022-08-25T04:09:22.947Z,14.41
2022-08-25T04:10:22.991Z,14.37
2022-08-25T04:11:22.867Z,14.41
2022-08-25T04:12:22.973Z,14.36
2022-08-25T04:13:22.930Z,14.40
2022-08-25T04:14:23.196Z,14.40
2022-08-25T04:15:22.976Z,14.50
2022-08-25T04:16:23.540Z,14.55
2022-08-25T04:17:22.935Z,14.53
2022-08-25T04:18:24.283Z,14.54
2022-08-25T04:19:23.452Z,14.70
2022-08-25T04:20:22.812Z,14.68
2022-08-25T04:21:22.780Z,14.72
2022-08-25T04:22:22.861Z,14.66
2022-08-25T04:23:22.781Z,14.65
2022-08-25T04:24:22.787Z,14.72
2022-08-25T04:25:23.487Z,14.73
2022-08-25T04:26:22.758Z,14.78
2022-08-25T04:27:22.793Z,14.79
2022-08-25T04:28:23.458Z,14.77
2022-08-25T04:29:23.687Z,14.86
2022-08-25T04:30:22.765Z,14.84
2022-08-25T04:31:23.582Z,14.70
2022-08-25T04:32:22.859Z,14.82
2022-08-25T04:33:22.735Z,14.86
2022-08-25T04:34:28.345Z,14.88
2022-08-25T04:35:23.686Z,14.88
2022-08-25T04:36:22.717Z,14.88
2022-08-25T04:37:22.685Z,14.89
2022-08-25T04:38:22.704Z,14.85
2022-08-25T04:39:22.659Z,14.84
2022-08-25T04:40:27.945Z,14.84
2022-08-25T04:41:24.632Z,14.84
2022-08-25T04:42:23.240Z,14.88
2022-08-25T04:43:22.651Z,14.84
2022-08-25T04:44:22.982Z,14.85
2022-08-25T04:51:48.490Z,15.27
2022-08-25T04:52:48.464Z,15.27
2022-08-25T04:53:48.460Z,15.27
2022-08-25T04:54:48.457Z,15.37
2022-08-25T04:55:50.975Z,15.47
2022-08-25T04:56:49.699Z,15.51
2022-08-25T04:57:50.468Z,15.46
2022-08-25T04:58:49.756Z,15.42
2022-08-25T04:59:49.727Z,15.42
2022-08-25T05:00:50.824Z,15.27
2022-08-25T05:01:50.175Z,15.25
2022-08-25T05:02:49.681Z,15.40
2022-08-25T05:03:49.577Z,15.44
2022-08-25T05:04:49.585Z,15.61
2022-08-25T05:05:49.590Z,15.90
2022-08-25T05:06:49.557Z,16.16
2022-08-25T05:07:49.576Z,16.47
2022-08-25T05:08:49.618Z,16.64
2022-08-25T05:09:49.541Z,17.15
2022-08-25T05:10:49.619Z,17.57
2022-08-25T05:11:49.607Z,17.68
2022-08-25T05:12:49.554Z,17.98
2022-08-25T05:13:51.556Z,18.23
2022-08-25T05:14:49.653Z,18.68
2022-08-25T05:15:50.942Z,19.00
2022-08-25T05:16:49.542Z,19.39
2022-08-25T05:17:53.836Z,19.54
2022-08-25T05:18:52.339Z,19.67
2022-08-25T05:19:49.478Z,19.88
2022-08-25T05:20:49.432Z,20.24
2022-08-25T05:21:49.479Z,20.34
2022-08-25T05:22:50.229Z,20.55
2022-08-25T05:23:49.454Z,20.82
2022-08-25T05:24:49.450Z,21.15
2022-08-25T05:25:49.423Z,21.21
2022-08-25T05:26:49.506Z,21.29
2022-08-25T05:27:49.547Z,21.17
2022-08-25T05:28:49.516Z,21.36
2022-08-25T05:31:50.592Z,21.25
2022-08-25T05:32:47.534Z,21.20
2022-08-25T05:33:49.471Z,20.93
2022-08-25T05:34:50.574Z,20.58
2022-08-25T05:35:48.681Z,20.28
2022-08-25T05:36:49.829Z,20.13
2022-08-25T05:37:49.298Z,20.34
2022-08-25T05:38:51.478Z,20.58
2022-08-25T05:39:48.693Z,20.97
2022-08-25T05:40:48.618Z,21.32
2022-08-25T05:41:48.666Z,21.61
2022-08-25T05:42:48.641Z,21.85
2022-08-25T05:43:49.275Z,22.10
2022-08-25T05:44:48.596Z,22.06
2022-08-25T05:45:49.302Z,21.70
2022-08-25T05:46:49.264Z,21.89
2022-08-25T05:47:49.485Z,21.75
2022-08-25T05:48:48.537Z,21.66
2022-08-25T05:49:48.672Z,22.08
2022-08-25T05:50:48.777Z,22.18
2022-08-25T05:51:48.464Z,21.88
2022-08-25T05:52:48.540Z,21.98
2022-08-25T05:53:48.465Z,21.60
2022-08-25T05:54:48.506Z,21.43
2022-08-25T05:55:48.575Z,21.36
2022-08-25T05:56:48.471Z,21.43
2022-08-25T05:57:48.520Z,21.25
2022-08-25T05:58:48.508Z,21.32
2022-08-25T05:59:48.531Z,21.37
2022-08-25T06:00:48.396Z,21.45
2022-08-25T06:01:48.524Z,21.93
2022-08-25T06:02:49.268Z,22.08
2022-08-25T06:03:49.321Z,22.29
2022-08-25T06:04:48.525Z,22.41
2022-08-25T06:05:48.407Z,22.36
2022-08-25T06:06:48.543Z,22.83
2022-08-25T06:07:48.463Z,22.84
2022-08-25T06:08:48.390Z,23.03
2022-08-25T06:09:49.441Z,22.94
2022-08-25T06:10:48.399Z,23.17
2022-08-25T06:11:51.713Z,23.46
2022-08-25T06:12:50.426Z,24.02
2022-08-25T06:13:48.978Z,23.74
2022-08-25T06:14:48.403Z,23.76
2022-08-25T06:15:48.978Z,23.46
2022-08-25T06:16:48.780Z,23.08
2022-08-25T06:17:49.989Z,22.90
2022-08-25T06:18:50.981Z,22.85
2022-08-25T06:21:47.919Z,23.17
2022-08-25T06:22:48.365Z,23.15
2022-08-25T06:23:49.073Z,23.23
2022-08-25T06:24:48.810Z,23.81
2022-08-25T06:25:48.509Z,24.30
2022-08-25T06:26:52.872Z,24.55
2022-08-25T06:27:48.892Z,24.08
2022-08-25T06:28:48.521Z,24.30
2022-08-25T06:29:48.515Z,24.69
2022-08-25T06:30:48.508Z,25.04
2022-08-25T06:31:48.541Z,25.47
2022-08-25T06:32:50.619Z,25.75
2022-08-25T06:33:48.513Z,25.66
2022-08-25T06:34:49.263Z,25.35
2022-08-25T06:35:48.487Z,24.55
2022-08-25T06:36:49.016Z,24.24
2022-08-25T06:37:49.393Z,24.36
2022-08-25T06:38:48.565Z,24.35
2022-08-25T06:39:48.510Z,24.29
2022-08-25T06:40:49.166Z,23.68
2022-08-25T06:41:49.473Z,23.32
2022-08-25T06:42:48.411Z,23.48
2022-08-25T06:43:52.930Z,23.65
2022-08-25T06:44:51.870Z,23.88
2022-08-25T06:45:49.892Z,24.39
2022-08-25T06:46:48.924Z,24.73
2022-08-25T06:47:49.372Z,24.98
2022-08-25T06:48:48.519Z,25.23
2022-08-25T06:49:48.530Z,25.58
2022-08-25T06:50:49.271Z,25.36
2022-08-25T06:51:48.458Z,24.93
2022-08-25T06:52:48.414Z,25.33
2022-08-25T06:53:49.875Z,25.32
2022-08-25T06:54:49.101Z,25.95
2022-08-25T06:55:48.379Z,26.48
2022-08-25T06:56:49.730Z,26.53
2022-08-25T06:57:48.406Z,26.97
2022-08-25T06:58:48.382Z,27.35
2022-08-25T06:59:50.151Z,26.75
2022-08-25T07:00:48.390Z,26.33
2022-08-25T07:02:22.109Z,25.78
2022-08-25T07:02:48.918Z,25.25
2022-08-25T07:03:49.287Z,25.06
2022-08-25T07:04:48.437Z,25.72
2022-08-25T07:05:48.268Z,25.95
2022-08-25T07:06:48.387Z,25.88
2022-08-25T07:07:48.234Z,25.58
2022-08-25T07:08:48.305Z,25.55
2022-08-25T07:09:48.294Z,25.51
2022-08-25T07:10:48.332Z,25.88
2022-08-25T07:11:48.925Z,25.50
2022-08-25T07:12:48.343Z,25.35
2022-08-25T07:13:48.209Z,25.32
2022-08-25T07:15:03.497Z,25.51
2022-08-25T07:15:50.318Z,25.65
2022-08-25T07:16:50.243Z,25.63
2022-08-25T07:18:22.048Z,26.06
2022-08-25T07:18:48.745Z,26.02
2022-08-25T07:19:48.111Z,25.80
2022-08-25T07:20:48.112Z,25.91
2022-08-25T07:21:48.965Z,25.95
2022-08-25T07:24:08.209Z,25.66
2022-08-25T07:25:08.157Z,25.68
2022-08-25T07:26:15.839Z,25.40
2022-08-25T07:27:11.352Z,24.98
2022-08-25T07:28:09.375Z,24.95
2022-08-25T07:29:09.380Z,25.07
2022-08-25T07:30:09.281Z,25.06
2022-08-25T07:31:41.863Z,25.10
2022-08-25T07:32:09.915Z,26.05
2022-08-25T07:33:09.462Z,26.43
2022-08-25T07:34:09.916Z,26.81
2022-08-25T07:35:09.341Z,27.11
2022-08-25T07:36:09.996Z,27.36
2022-08-25T07:37:09.304Z,27.75
2022-08-25T07:39:11.209Z,26.89
2022-08-25T07:40:09.403Z,26.97
2022-08-25T07:41:09.355Z,26.62
2022-08-25T07:42:12.283Z,26.34
2022-08-25T07:43:09.403Z,26.53
2022-08-25T07:44:09.366Z,26.92
2022-08-25T07:45:09.289Z,27.55
2022-08-25T07:46:09.729Z,27.60
2022-08-25T07:47:09.292Z,27.59
2022-08-25T07:48:09.232Z,27.73
2022-08-25T07:49:16.299Z,28.01
2022-08-25T07:50:11.082Z,28.07
2022-08-25T07:51:09.241Z,28.14
2022-08-25T07:52:11.208Z,27.70
2022-08-25T07:53:09.419Z,27.90
2022-08-25T07:54:09.253Z,28.67
2022-08-25T07:55:11.103Z,28.91
2022-08-25T07:56:09.260Z,29.44
2022-08-25T07:57:10.708Z,29.63
2022-08-25T07:58:09.709Z,29.54
2022-08-25T07:59:10.075Z,29.81
2022-08-25T08:00:09.189Z,29.59
2022-08-25T08:01:10.737Z,29.32
2022-08-25T08:02:16.096Z,28.91
2022-08-25T08:03:19.691Z,28.82
2022-08-25T08:04:11.787Z,29.26
2022-08-25T08:05:09.771Z,29.26
2022-08-25T08:06:09.141Z,29.27
2022-08-25T08:07:12.138Z,28.33
2022-08-25T08:08:10.714Z,28.84
2022-08-25T08:09:09.116Z,29.42
2022-08-25T08:10:42.470Z,29.98
2022-08-25T08:11:11.314Z,30.05
2022-08-25T08:12:09.174Z,30.08
2022-08-25T08:13:09.325Z,29.97
2022-08-25T08:14:09.725Z,29.51
2022-08-25T08:15:10.282Z,29.78
2022-08-25T08:16:09.152Z,30.18
2022-08-25T08:17:09.156Z,30.34
2022-08-25T08:18:09.717Z,30.19
2022-08-25T08:19:09.027Z,30.28
2022-08-25T08:20:09.101Z,30.24
2022-08-25T08:21:08.990Z,30.48
2022-08-25T08:22:09.056Z,30.16
2022-08-25T08:23:09.119Z,29.69
2022-08-25T08:24:19.552Z,29.79
2022-08-25T08:25:13.729Z,30.30
2022-08-25T08:26:10.005Z,29.82
2022-08-25T08:27:09.166Z,30.47
2022-08-25T08:28:09.127Z,30.81
2022-08-25T08:29:42.328Z,30.80
2022-08-25T08:30:08.874Z,30.55
2022-08-25T08:31:10.582Z,30.03
2022-08-25T08:32:08.872Z,30.10
2022-08-25T08:33:11.414Z,30.02
2022-08-25T08:34:09.845Z,29.87
2022-08-25T08:35:08.913Z,30.00
2022-08-25T08:36:08.837Z,29.86
2022-08-25T08:37:10.500Z,30.48
2022-08-25T08:38:14.470Z,30.88
2022-08-25T08:39:10.863Z,30.90
2022-08-25T08:40:08.900Z,30.97
2022-08-25T08:41:08.805Z,30.92
2022-08-25T08:42:11.199Z,30.96
2022-08-25T08:43:18.475Z,30.81
2022-08-25T08:44:09.889Z,31.24
2022-08-25T08:45:09.535Z,31.44
2022-08-25T08:46:08.849Z,31.47
2022-08-25T08:47:09.750Z,31.99
2022-08-25T08:48:09.179Z,31.77
2022-08-25T08:49:08.727Z,31.65
2022-08-25T08:50:08.740Z,31.55
2022-08-25T08:51:10.025Z,31.65
2022-08-25T08:52:08.757Z,31.93
2022-08-25T08:53:08.707Z,31.64
2022-08-25T08:54:15.540Z,32.04
2022-08-25T08:55:09.739Z,30.80
2022-08-25T08:56:08.896Z,29.54
2022-08-25T08:57:08.719Z,29.65
2022-08-25T08:58:08.671Z,29.78
2022-08-25T08:59:08.687Z,30.54
2022-08-25T09:00:08.672Z,31.51
2022-08-25T09:01:08.693Z,32.68
2022-08-25T09:02:13.804Z,33.89
2022-08-25T09:03:10.729Z,34.64
2022-08-25T09:04:08.696Z,34.90
2022-08-25T09:05:08.637Z,35.04
2022-08-25T09:06:08.670Z,32.36
2022-08-25T09:07:08.615Z,30.09
2022-08-25T09:08:08.951Z,28.60
2022-08-25T09:09:08.623Z,28.74
2022-08-25T09:10:08.624Z,29.93
2022-08-25T09:11:10.371Z,30.85
2022-08-25T09:12:08.669Z,31.59
2022-08-25T09:13:12.136Z,31.44
2022-08-25T09:14:09.724Z,30.99
2022-08-25T09:15:13.145Z,30.46
2022-08-25T09:16:09.666Z,30.70
2022-08-25T09:17:10.013Z,30.61
2022-08-25T09:18:08.669Z,30.09
2022-08-25T09:19:08.529Z,29.75
2022-08-25T09:20:18.812Z,29.54
2022-08-25T09:21:09.509Z,30.39
2022-08-25T09:22:33.901Z,30.99
2022-08-25T09:23:09.495Z,30.97
2022-08-25T09:24:08.493Z,31.39
2022-08-25T09:25:09.043Z,31.65
2022-08-25T09:26:09.516Z,31.62
2022-08-25T09:27:08.512Z,32.08
2022-08-25T09:28:08.515Z,32.09
2022-08-25T09:29:16.230Z,31.37
2022-08-25T09:30:10.042Z,30.55
2022-08-25T09:31:08.546Z,30.54
2022-08-25T09:32:09.348Z,30.99
2022-08-25T09:33:08.495Z,31.21
2022-08-25T09:34:08.441Z,31.21
2022-08-25T09:35:08.444Z,31.03
2022-08-25T09:36:08.978Z,31.15
2022-08-25T09:37:08.386Z,31.33
2022-08-25T09:38:08.448Z,31.90
2022-08-25T09:39:09.929Z,31.92
2022-08-25T09:40:08.402Z,31.71
2022-08-25T09:41:08.382Z,30.96
2022-08-25T09:42:08.378Z,30.88
2022-08-25T09:43:08.354Z,31.24
2022-08-25T09:44:08.374Z,31.00
2022-08-25T09:45:08.390Z,30.70
2022-08-25T09:46:08.418Z,31.17
2022-08-25T09:47:08.465Z,31.15
2022-08-25T09:48:08.360Z,30.18
2022-08-25T09:49:08.325Z,30.23
2022-08-25T09:50:08.403Z,30.03
2022-08-25T09:51:09.359Z,30.32
2022-08-25T09:52:08.387Z,30.32
2022-08-25T09:53:17.454Z,30.68
2022-08-25T09:54:10.599Z,30.78
2022-08-25T09:55:08.586Z,29.88
2022-08-25T09:56:08.299Z,29.35
2022-08-25T09:57:08.971Z,29.31
2022-08-25T09:58:09.647Z,29.41
2022-08-25T09:59:08.296Z,29.49
2022-08-25T10:00:09.305Z,29.63
2022-08-25T10:01:08.314Z,30.05
2022-08-25T10:02:08.256Z,30.10
2022-08-25T10:03:08.413Z,29.93
2022-08-25T10:04:17.689Z,29.66
2022-08-25T10:05:09.307Z,29.78
2022-08-25T10:06:13.221Z,30.16
2022-08-25T10:07:09.213Z,29.72
2022-08-25T10:08:08.232Z,29.29
2022-08-25T10:09:08.183Z,29.50
2022-08-25T10:10:08.184Z,29.95
2022-08-25T10:11:08.677Z,30.62
2022-08-25T10:12:08.190Z,29.97
2022-08-25T10:13:08.389Z,29.44
2022-08-25T10:14:08.215Z,29.41
2022-08-25T10:15:08.163Z,30.25
2022-08-25T10:16:20.174Z,30.40
2022-08-25T10:17:09.164Z,30.27
2022-08-25T10:18:08.137Z,29.71
2022-08-25T10:19:08.159Z,30.02
2022-08-25T10:20:08.786Z,30.68
2022-08-25T10:21:08.124Z,31.03
2022-08-25T10:22:08.255Z,30.88
2022-08-25T10:23:08.135Z,31.03
2022-08-25T10:24:08.095Z,30.97
2022-08-25T10:25:08.102Z,30.75
2022-08-25T10:26:08.096Z,30.94
2022-08-25T10:27:08.081Z,31.31
2022-08-25T10:28:08.059Z,31.10
2022-08-25T10:29:08.104Z,31.51
2022-08-25T10:30:08.027Z,31.64
2022-08-25T10:31:09.662Z,31.29
2022-08-25T10:32:12.007Z,30.90
2022-08-25T10:33:09.124Z,30.54
2022-08-25T10:34:08.066Z,30.19
2022-08-25T10:35:08.038Z,30.80
2022-08-25T10:36:08.051Z,31.42
2022-08-25T10:37:09.193Z,31.49
2022-08-25T10:38:08.062Z,31.47
2022-08-25T10:39:34.638Z,31.61
2022-08-25T10:40:09.017Z,31.77
2022-08-25T10:41:07.969Z,30.59
2022-08-25T10:42:07.954Z,30.50
2022-08-25T10:43:08.452Z,30.88
2022-08-25T10:44:07.965Z,30.63
2022-08-25T10:45:08.020Z,30.27
2022-08-25T10:46:08.054Z,30.99
2022-08-25T10:47:07.935Z,31.64
2022-08-25T10:48:08.068Z,31.66
2022-08-25T10:49:07.937Z,31.69
2022-08-25T10:50:07.951Z,31.61
2022-08-25T10:51:09.800Z,30.50
2022-08-25T10:52:07.886Z,29.91
2022-08-25T10:53:09.210Z,30.28
2022-08-25T10:54:07.885Z,30.68
2022-08-25T10:55:07.856Z,30.77
2022-08-25T10:56:07.903Z,31.03
2022-08-25T10:57:08.222Z,31.27
2022-08-25T10:58:07.842Z,31.44
2022-08-25T10:59:07.917Z,31.59
2022-08-25T11:00:07.837Z,31.42
2022-08-25T11:01:08.097Z,30.85
2022-08-25T11:02:07.966Z,29.98
2022-08-25T11:03:07.978Z,30.13
2022-08-25T11:04:07.910Z,30.68
2022-08-25T11:05:07.893Z,31.21
2022-08-25T11:06:07.880Z,31.65
2022-08-25T11:07:07.786Z,32.45
2022-08-25T11:08:07.786Z,33.30
2022-08-25T11:09:07.774Z,33.43
2022-08-25T11:10:07.770Z,32.36
2022-08-25T11:11:07.782Z,31.70
2022-08-25T11:12:07.826Z,31.47
2022-08-25T11:13:07.776Z,30.81
2022-08-25T11:14:10.988Z,30.54
2022-08-25T11:15:08.452Z,30.27
2022-08-25T11:16:17.089Z,30.46
2022-08-25T11:17:09.829Z,30.40
2022-08-25T11:18:14.692Z,30.78
2022-08-25T11:19:08.781Z,30.69
2022-08-25T11:20:07.687Z,30.32
2022-08-25T11:21:07.722Z,30.21
2022-08-25T11:22:07.744Z,30.68
2022-08-25T11:23:07.827Z,31.39
2022-08-25T11:24:07.698Z,31.80
2022-08-25T11:25:07.649Z,32.08
2022-08-25T11:26:07.686Z,31.87
2022-08-25T11:27:07.665Z,31.96
2022-08-25T11:28:07.921Z,31.93
2022-08-25T11:29:07.776Z,32.27
2022-08-25T11:30:07.713Z,32.73
2022-08-25T11:31:07.742Z,33.12
2022-08-25T11:32:07.655Z,33.14
2022-08-25T11:33:07.641Z,32.46
2022-08-25T11:34:07.620Z,31.76
2022-08-25T11:35:07.627Z,31.15
2022-08-25T11:36:07.620Z,31.40
2022-08-25T11:37:07.617Z,31.52
2022-08-25T11:38:07.815Z,31.31
2022-08-25T11:39:07.634Z,31.22
2022-08-25T11:40:08.811Z,30.65
2022-08-25T11:41:11.071Z,30.73
2022-08-25T11:42:07.601Z,31.05
2022-08-25T11:43:08.265Z,31.22
2022-08-25T11:44:07.592Z,31.59
2022-08-25T11:45:07.529Z,31.97
2022-08-25T11:46:07.629Z,31.69
2022-08-25T11:47:07.541Z,31.42
2022-08-25T11:48:08.522Z,31.17
2022-08-25T11:49:07.527Z,31.37
2022-08-25T11:50:07.578Z,30.88
2022-08-25T11:51:07.552Z,30.23
2022-08-25T11:52:07.472Z,29.59
2022-08-25T11:53:11.366Z,29.41
2022-08-25T11:54:07.487Z,29.29
2022-08-25T11:55:07.497Z,29.31
2022-08-25T11:56:07.458Z,29.42
2022-08-25T11:57:07.472Z,29.66
2022-08-25T11:58:07.713Z,30.10
2022-08-25T11:59:07.428Z,29.95
2022-08-25T12:00:07.436Z,29.97
2022-08-25T12:01:07.488Z,30.23
2022-08-25T12:02:07.436Z,30.63
2022-08-25T12:03:07.435Z,30.43
2022-08-25T12:04:07.443Z,29.84
2022-08-25T12:05:07.541Z,29.98
2022-08-25T12:06:07.408Z,29.90
2022-08-25T12:07:07.432Z,29.82
2022-08-25T12:08:07.414Z,29.90
2022-08-25T12:09:07.423Z,29.94
2022-08-25T12:10:07.434Z,30.09
2022-08-25T12:11:10.963Z,30.21
2022-08-25T12:12:08.410Z,29.71
2022-08-25T12:13:10.578Z,29.24
2022-08-25T12:14:07.405Z,29.29
2022-08-25T12:15:07.349Z,29.45
2022-08-25T12:16:07.333Z,29.65
2022-08-25T12:17:07.347Z,29.56
2022-08-25T12:18:08.851Z,29.50
2022-08-25T12:19:08.343Z,30.00
2022-08-25T12:20:07.408Z,30.44
2022-08-25T12:21:07.276Z,30.51
2022-08-25T12:22:08.312Z,30.84
2022-08-25T12:23:07.288Z,31.05
2022-08-25T12:24:07.302Z,30.92
2022-08-25T12:25:07.316Z,30.65
2022-08-25T12:26:07.319Z,30.37
2022-08-25T12:27:07.287Z,30.19
2022-08-25T12:28:09.282Z,30.44
2022-08-25T12:29:07.439Z,31.05
2022-08-25T12:30:07.269Z,31.00
2022-08-25T12:31:07.315Z,30.91
2022-08-25T12:32:07.254Z,30.70
2022-08-25T12:33:07.307Z,30.54
2022-08-25T12:34:07.246Z,30.39
2022-08-25T12:35:07.264Z,30.68
2022-08-25T12:36:07.237Z,30.97
2022-08-25T12:37:07.191Z,31.17
2022-08-25T12:38:07.443Z,31.52
2022-08-25T12:39:07.245Z,31.66
2022-08-25T12:40:07.249Z,31.42
2022-08-25T12:41:07.211Z,31.44
2022-08-25T12:42:07.180Z,31.70
2022-08-25T12:43:07.367Z,31.39
2022-08-25T12:44:07.230Z,30.65
2022-08-25T12:45:07.220Z,30.15
2022-08-25T12:46:07.263Z,29.97
2022-08-25T12:47:07.181Z,29.90
2022-08-25T12:48:08.129Z,30.09
2022-08-25T12:49:07.138Z,30.15
2022-08-25T12:50:07.147Z,30.16
2022-08-25T12:51:07.108Z,30.25
2022-08-25T12:52:07.207Z,30.44
2022-08-25T12:53:07.249Z,30.43
2022-08-25T12:54:10.525Z,30.61
2022-08-25T12:55:08.100Z,31.10
2022-08-25T12:56:07.101Z,31.27
2022-08-25T12:57:07.111Z,31.17
2022-08-25T12:58:07.093Z,31.05
2022-08-25T12:59:07.082Z,31.05
2022-08-25T13:00:07.128Z,31.39
2022-08-25T13:01:09.266Z,31.36
2022-08-25T13:02:07.366Z,30.78
2022-08-25T13:03:07.458Z,30.48
2022-08-25T13:04:07.034Z,30.87
2022-08-25T13:05:07.005Z,31.06
2022-08-25T13:06:08.119Z,31.27
2022-08-25T13:07:07.042Z,31.42
2022-08-25T13:08:07.274Z,31.25
2022-08-25T13:09:08.276Z,31.51
2022-08-25T13:10:07.002Z,31.54
2022-08-25T13:11:06.969Z,31.55
2022-08-25T13:12:06.965Z,31.59
2022-08-25T13:13:06.982Z,31.69
2022-08-25T13:14:06.953Z,31.73
2022-08-25T13:15:06.982Z,32.04
2022-08-25T13:16:08.005Z,31.94
2022-08-25T13:17:06.998Z,31.84
2022-08-25T13:18:07.210Z,31.64
2022-08-25T13:19:07.011Z,31.25
2022-08-25T13:20:07.043Z,30.90
2022-08-25T13:21:06.913Z,31.12
2022-08-25T13:22:06.929Z,31.29
2022-08-25T13:23:07.110Z,31.03
2022-08-25T13:24:06.910Z,30.37
2022-08-25T13:25:06.902Z,30.31
2022-08-25T13:26:06.890Z,30.34
2022-08-25T13:27:06.875Z,30.12
2022-08-25T13:28:11.141Z,30.16
2022-08-25T13:29:09.163Z,30.28
2022-08-25T13:30:08.236Z,30.03
2022-08-25T13:31:06.838Z,30.03
2022-08-25T13:32:09.095Z,30.05
2022-08-25T13:33:08.840Z,30.08
2022-08-25T13:34:06.894Z,30.06
2022-08-25T13:35:06.858Z,30.35
2022-08-25T13:36:06.869Z,30.72
2022-08-25T13:37:06.777Z,30.44
2022-08-25T13:38:07.005Z,30.24
2022-08-25T13:39:06.778Z,30.44
2022-08-25T13:40:06.869Z,30.68
2022-08-25T13:41:09.341Z,31.02
2022-08-25T13:42:06.795Z,30.88
2022-08-25T13:43:06.787Z,30.84
2022-08-25T13:44:06.793Z,31.05
2022-08-25T13:45:07.748Z,31.47
2022-08-25T13:46:07.859Z,31.65
2022-08-25T13:47:06.726Z,31.74
2022-08-25T13:48:06.750Z,31.46
2022-08-25T13:49:08.768Z,31.64
2022-08-25T13:50:06.740Z,31.51